createdAt,value
2023-04-01T00:00:23.530Z,9.43
2023-04-01T00:02:53.061Z,9.14
2023-04-01T00:05:21.158Z,9.30
2023-04-01T00:07:49.268Z,9.44
2023-04-01T00:10:17.104Z,9.07
2023-04-01T00:12:44.872Z,9.16
2023-04-01T00:15:13.860Z,9.27
2023-04-01T00:17:42.003Z,8.99
2023-04-01T00:20:12.497Z,9.40
2023-04-01T00:22:40.444Z,8.99
2023-04-01T00:25:09.472Z,9.20
2023-04-01T00:27:37.233Z,9.56
2023-04-01T00:30:06.618Z,9.41
2023-04-01T00:32:34.568Z,9.15
2023-04-01T00:35:02.379Z,9.17
2023-04-01T00:37:31.945Z,9.17
2023-04-01T00:40:00.159Z,9.33
2023-04-01T00:42:27.958Z,9.01
2023-04-01T00:44:56.894Z,9.31
2023-04-01T00:47:27.691Z,9.25
2023-04-01T00:49:56.934Z,8.91
2023-04-01T00:52:27.289Z,8.83
2023-04-01T00:54:59.172Z,9.01
2023-04-01T00:57:33.053Z,8.99
2023-04-01T01:00:01.294Z,9.52
2023-04-01T01:02:29.309Z,9.39
2023-04-01T01:04:57.076Z,8.84
2023-04-01T01:07:35.429Z,8.83
2023-04-01T01:10:13.480Z,8.50
2023-04-01T01:12:46.866Z,8.71
2023-04-01T01:15:22.382Z,9.06
2023-04-01T01:18:03.310Z,8.54
2023-04-01T01:21:21.876Z,8.55
2023-04-01T01:24:20.125Z,8.30
2023-04-01T01:27:01.612Z,8.75
2023-04-01T01:30:06.374Z,9.06
2023-04-01T01:32:52.070Z,8.87
2023-04-01T01:35:26.080Z,8.95
2023-04-01T01:37:57.769Z,8.81
2023-04-01T01:40:27.578Z,8.85
2023-04-01T01:43:02.082Z,9.09
2023-04-01T01:45:32.121Z,9.07
2023-04-01T08:04:20.002Z,8.64
2023-04-01T08:06:53.072Z,9.03
2023-04-01T08:09:30.337Z,8.63
2023-04-01T08:12:11.191Z,8.12
2023-04-01T08:14:50.282Z,7.98
2023-04-01T08:17:27.029Z,7.83
2023-04-01T08:20:10.459Z,8.17
2023-04-01T08:22:42.634Z,8.15
2023-04-01T08:25:18.885Z,8.58
2023-04-01T08:27:49.587Z,7.87
2023-04-01T08:30:21.074Z,7.76
2023-04-01T08:32:55.531Z,8.20
2023-04-01T08:35:32.609Z,8.05
2023-04-01T08:38:07.667Z,7.57
2023-04-01T08:40:57.246Z,7.83
2023-04-01T08:43:40.999Z,8.11
2023-04-01T08:46:21.823Z,8.61
2023-04-01T08:49:11.622Z,8.21
2023-04-01T08:52:06.042Z,7.86
2023-04-01T08:54:50.781Z,8.43
2023-04-01T08:57:31.018Z,8.46
2023-04-01T09:00:09.704Z,8.39
2023-04-01T09:03:04.928Z,8.41
2023-04-01T09:06:15.403Z,8.82
2023-04-01T09:09:02.364Z,8.52
2023-04-01T09:11:41.077Z,9.47
2023-04-01T09:14:51.344Z,8.33
2023-04-01T09:17:54.729Z,7.70
2023-04-01T09:20:49.829Z,7.83
2023-04-01T09:23:41.087Z,9.00
2023-04-01T09:26:23.559Z,8.05
2023-04-01T09:29:01.893Z,8.56
2023-04-01T09:31:52.743Z,8.41
2023-04-01T09:34:43.068Z,8.02
2023-04-01T09:37:22.604Z,8.39
2023-04-01T09:40:10.320Z,8.10
2023-04-01T09:42:51.150Z,8.38
2023-04-01T09:45:36.868Z,8.01
2023-04-01T09:48:17.006Z,8.28
2023-04-01T09:50:52.726Z,7.91
2023-04-01T09:53:36.131Z,7.87
2023-04-01T09:56:33.818Z,8.33
2023-04-01T09:59:44.284Z,8.15
2023-04-01T10:02:53.566Z,8.66
2023-04-01T10:06:08.818Z,8.80
2023-04-01T10:09:16.015Z,8.71
2023-04-01T10:12:09.563Z,7.54
2023-04-01T10:15:02.863Z,8.24
2023-04-01T10:17:50.665Z,8.33
2023-04-01T10:20:41.205Z,8.84
2023-04-01T10:23:42.774Z,8.38
2023-04-01T10:26:44.966Z,8.19
2023-04-01T10:29:50.214Z,7.77
2023-04-01T10:32:57.681Z,7.34
2023-04-01T10:35:49.297Z,7.97
2023-04-01T10:38:44.328Z,7.87
2023-04-01T10:41:48.259Z,7.74
2023-04-01T10:44:45.367Z,7.80
2023-04-01T10:47:39.493Z,7.40
2023-04-01T10:50:26.161Z,8.26
2023-04-01T10:53:18.479Z,8.33
2023-04-01T10:56:22.157Z,8.41
2023-04-01T10:59:37.582Z,8.01
2023-04-01T11:02:46.746Z,7.91
2023-04-01T11:06:00.350Z,7.91
2023-04-01T11:09:06.701Z,7.18
2023-04-01T11:12:06.204Z,7.90
2023-04-01T11:15:07.471Z,8.01
2023-04-01T11:18:00.269Z,8.24
2023-04-01T11:20:59.063Z,8.16
2023-04-01T11:24:04.382Z,8.01
2023-04-01T11:26:42.049Z,7.83
2023-04-01T11:29:44.387Z,8.31
2023-04-01T11:32:35.185Z,8.23
2023-04-01T11:35:27.860Z,8.23
2023-04-01T11:38:05.417Z,8.27
2023-04-01T11:40:41.206Z,7.66
2023-04-01T11:43:26.125Z,7.60
2023-04-01T11:46:07.431Z,7.85
2023-04-01T11:49:00.465Z,8.35
2023-04-01T11:51:42.646Z,7.99
2023-04-01T11:54:22.389Z,8.20
2023-04-01T11:57:09.011Z,7.84
2023-04-01T11:59:59.953Z,8.41
2023-04-01T12:02:36.952Z,7.62
2023-04-01T12:05:26.013Z,7.97
2023-04-01T12:08:06.206Z,8.39
2023-04-01T12:10:42.104Z,8.67
2023-04-01T12:13:23.275Z,9.09
2023-04-01T12:16:04.733Z,8.88
2023-04-01T12:18:41.196Z,8.55
2023-04-01T12:21:23.651Z,8.47
2023-04-01T12:24:15.497Z,8.47
2023-04-01T12:26:56.196Z,8.93
2023-04-01T12:29:51.483Z,7.57
2023-04-01T12:32:27.112Z,8.03
2023-04-01T12:35:15.210Z,8.03
2023-04-01T12:37:52.678Z,7.50
2023-04-01T12:40:41.661Z,8.12
2023-04-01T12:43:28.190Z,7.68
2023-04-01T12:46:03.084Z,8.21
2023-04-01T12:48:49.298Z,7.89
2023-04-01T12:51:39.113Z,7.58
2023-04-01T12:54:22.419Z,7.66
2023-04-01T12:57:05.400Z,7.74
2023-04-01T12:59:52.235Z,7.99
2023-04-01T13:02:33.271Z,7.99
2023-04-01T13:05:27.110Z,7.90
2023-04-01T13:08:08.216Z,7.49
2023-04-01T13:10:58.918Z,7.87
2023-04-01T13:13:42.580Z,8.07
2023-04-01T13:16:17.210Z,8.16
2023-04-01T13:18:59.548Z,7.89
2023-04-01T13:21:50.045Z,8.54
2023-04-01T13:24:33.232Z,7.63
2023-04-01T13:27:06.911Z,7.94
2023-04-01T13:29:41.059Z,7.68
2023-04-01T13:32:33.277Z,8.15
2023-04-01T13:35:23.227Z,8.03
2023-04-01T13:38:05.382Z,8.28
2023-04-01T13:40:42.757Z,8.32
2023-04-01T13:43:18.723Z,7.99
2023-04-01T13:46:23.324Z,7.56
2023-04-01T13:49:24.300Z,7.68
2023-04-01T13:52:17.038Z,7.00
2023-04-01T13:55:01.024Z,7.83
2023-04-01T13:57:44.873Z,7.67
2023-04-01T14:00:31.014Z,8.13
2023-04-01T14:03:16.103Z,7.72
2023-04-01T14:05:58.385Z,8.46
2023-04-01T14:08:43.990Z,8.01
2023-04-01T14:11:22.189Z,7.95
2023-04-01T14:14:04.054Z,8.19
2023-04-01T14:17:12.480Z,8.18
2023-04-01T14:20:09.232Z,7.67
2023-04-01T14:22:44.953Z,7.44
2023-04-01T14:25:35.015Z,7.99
2023-04-01T14:28:14.229Z,7.89
2023-04-01T14:31:18.129Z,7.63
2023-04-01T14:33:53.451Z,7.59
2023-04-01T14:36:50.082Z,7.57
2023-04-01T14:39:31.436Z,8.12
2023-04-01T14:42:21.942Z,7.65
2023-04-01T14:45:14.461Z,7.54
2023-04-01T14:47:48.465Z,6.85
2023-04-01T14:50:19.999Z,7.28
2023-04-01T14:52:59.068Z,7.71
2023-04-01T14:55:34.713Z,7.64
2023-04-01T14:58:11.772Z,7.57
2023-04-01T15:00:56.806Z,7.59
2023-04-01T15:03:31.729Z,7.21
2023-04-01T15:06:29.726Z,7.33
2023-04-01T15:09:06.668Z,7.26
2023-04-01T15:11:59.289Z,6.86
2023-04-01T15:14:45.985Z,7.01
2023-04-01T15:17:37.939Z,7.02
2023-04-01T15:20:44.053Z,7.00
2023-04-01T15:23:28.015Z,7.06
2023-04-01T15:26:18.479Z,7.02
2023-04-01T15:28:57.658Z,7.31
2023-04-01T15:31:31.675Z,7.40
2023-04-01T15:34:19.758Z,6.92
2023-04-01T15:36:56.778Z,6.76
2023-04-01T15:39:33.629Z,7.51
2023-04-01T15:42:21.995Z,7.34
2023-04-01T15:44:59.987Z,7.23
2023-04-01T15:47:37.529Z,7.60
2023-04-01T15:50:38.457Z,7.89
2023-04-01T15:53:19.722Z,7.31
2023-04-01T15:55:52.204Z,6.91
2023-04-01T15:58:35.397Z,7.41
2023-04-01T16:01:18.417Z,7.09
2023-04-01T16:03:56.608Z,7.31
2023-04-01T16:06:37.592Z,7.89
2023-04-01T16:09:21.892Z,7.25
2023-04-01T16:11:55.718Z,7.13
2023-04-01T16:14:35.652Z,7.36
2023-04-01T16:17:19.715Z,7.59
2023-04-01T16:19:54.978Z,7.82
2023-04-01T16:22:28.942Z,7.60
2023-04-01T16:25:13.716Z,7.20
2023-04-01T16:27:50.795Z,7.37
2023-04-01T16:30:39.327Z,7.28
2023-04-01T16:33:16.051Z,6.72
2023-04-01T16:35:48.318Z,6.22
2023-04-01T16:38:24.849Z,6.81
2023-04-01T16:41:03.129Z,7.23
2023-04-01T16:43:39.848Z,6.94
2023-04-01T16:46:29.662Z,7.01
2023-04-01T16:49:26.787Z,7.00
2023-04-01T16:51:59.771Z,6.92
2023-04-01T16:54:37.745Z,7.05
2023-04-01T16:57:18.835Z,6.78
2023-04-01T16:59:56.092Z,6.63
2023-04-01T17:02:28.580Z,6.95
2023-04-01T17:05:02.586Z,7.01
2023-04-01T17:07:40.394Z,6.61
2023-04-01T17:10:39.284Z,7.22
2023-04-01T17:13:30.618Z,7.26
2023-04-01T17:16:08.433Z,7.31
2023-04-01T17:18:50.082Z,7.30
2023-04-01T17:21:22.726Z,7.18
2023-04-01T17:23:55.054Z,7.00
2023-04-01T17:26:33.892Z,7.18
2023-04-01T17:29:12.826Z,6.93
2023-04-01T17:31:48.823Z,7.16
2023-04-01T17:34:39.711Z,7.18
2023-04-01T17:37:23.670Z,7.28
2023-04-01T17:40:08.187Z,6.88
2023-04-01T17:42:44.430Z,6.69
2023-04-01T17:45:21.653Z,6.68
2023-04-01T17:48:00.660Z,6.39
2023-04-01T17:50:46.578Z,6.46
2023-04-01T17:53:30.682Z,6.11
2023-04-01T17:56:11.175Z,6.17
2023-04-01T17:58:47.732Z,6.39
2023-04-01T18:01:28.516Z,6.58
2023-04-01T18:04:17.616Z,6.54
2023-04-01T18:07:10.389Z,6.40
2023-04-01T18:09:49.622Z,6.12
2023-04-01T18:12:26.917Z,6.14
2023-04-01T18:15:10.286Z,6.18
2023-04-01T18:17:51.791Z,6.05
2023-04-01T18:20:33.683Z,6.02
2023-04-01T18:23:08.600Z,5.87
2023-04-01T18:25:41.742Z,5.79
2023-04-01T18:28:23.015Z,5.91
2023-04-01T18:30:56.706Z,6.49
2023-04-01T18:33:31.302Z,5.97
2023-04-01T18:36:12.516Z,6.13
2023-04-01T18:38:47.734Z,6.66
2023-04-01T18:41:17.478Z,6.69
2023-04-01T18:43:59.413Z,6.34
2023-04-01T18:46:36.911Z,5.96
2023-04-01T18:49:13.991Z,6.04
2023-04-01T18:51:49.949Z,5.55
2023-04-01T18:54:27.064Z,5.82
2023-04-01T18:57:05.956Z,5.57
2023-04-01T18:59:41.312Z,5.70
2023-04-01T19:02:20.038Z,6.02
2023-04-01T19:04:53.017Z,5.57
2023-04-01T19:07:43.086Z,5.97
2023-04-01T19:10:22.273Z,6.07
2023-04-01T19:13:07.637Z,6.29
2023-04-01T19:15:43.733Z,5.56
2023-04-01T19:18:33.268Z,5.66
2023-04-01T19:21:07.393Z,5.86
2023-04-01T19:24:06.338Z,5.85
2023-04-01T19:26:40.320Z,5.70
2023-04-01T19:29:21.589Z,5.84
2023-04-01T19:32:01.236Z,5.64
2023-04-01T19:34:44.474Z,5.47
2023-04-01T19:37:22.601Z,5.09
2023-04-01T19:39:59.196Z,5.65
2023-04-01T19:42:38.631Z,5.75
2023-04-01T19:45:23.739Z,5.58
2023-04-01T19:48:02.503Z,5.94
2023-04-01T19:50:38.008Z,5.53
2023-04-01T19:53:19.084Z,5.52
2023-04-01T19:55:52.652Z,5.61
2023-04-01T19:58:29.709Z,5.70
2023-04-01T20:01:00.934Z,5.62
2023-04-01T20:03:39.631Z,5.74
2023-04-01T20:06:17.875Z,5.35
2023-04-01T20:09:00.487Z,5.89
2023-04-01T20:11:40.100Z,5.65
2023-04-01T20:14:20.400Z,5.89
2023-04-01T20:16:55.829Z,4.82
2023-04-01T20:19:30.788Z,5.55
2023-04-01T20:22:01.476Z,5.73
2023-04-01T20:24:34.367Z,5.44
2023-04-01T20:27:07.068Z,5.40
2023-04-01T20:29:48.597Z,5.35
2023-04-01T20:32:37.926Z,5.27
2023-04-01T20:35:37.820Z,5.74
2023-04-01T20:38:27.992Z,5.49
2023-04-01T20:41:04.278Z,5.12
2023-04-01T20:43:54.902Z,4.86
2023-04-01T20:46:29.424Z,5.11
2023-04-01T20:49:21.618Z,4.94
2023-04-01T20:51:55.825Z,5.21
2023-04-01T20:54:43.730Z,4.92
2023-04-01T20:57:15.634Z,5.27
2023-04-01T20:59:57.452Z,5.14
2023-04-01T21:02:49.166Z,5.06
2023-04-01T21:05:49.075Z,4.92
2023-04-01T21:08:27.356Z,5.48
2023-04-01T21:11:03.358Z,5.20
2023-04-01T21:13:48.452Z,5.31
2023-04-01T21:16:28.158Z,5.02
2023-04-01T21:19:19.004Z,5.25
2023-04-01T21:22:08.827Z,5.56
2023-04-01T21:24:59.067Z,4.91
2023-04-01T21:27:54.925Z,5.37
2023-04-01T21:30:39.273Z,5.46
2023-04-01T21:33:18.497Z,5.25
2023-04-01T21:36:00.667Z,4.98
2023-04-01T21:38:44.148Z,5.13
2023-04-01T21:41:42.171Z,4.95
2023-04-01T21:44:37.037Z,5.46
2023-04-01T21:47:33.955Z,5.40
2023-04-01T21:50:37.384Z,5.48
2023-04-01T21:53:44.622Z,5.63
2023-04-01T21:56:37.238Z,5.21
2023-04-01T21:59:26.996Z,5.83
2023-04-01T22:02:21.079Z,5.71
2023-04-01T22:04:59.615Z,5.83
2023-04-01T22:07:35.551Z,5.76
2023-04-01T22:10:16.882Z,5.57
2023-04-01T22:12:52.360Z,5.97
2023-04-01T22:15:30.481Z,5.77
2023-04-01T22:18:05.656Z,5.41
2023-04-01T22:20:41.845Z,5.50
2023-04-01T22:23:22.033Z,5.91
2023-04-01T22:25:59.697Z,5.72
2023-04-01T22:28:33.802Z,5.60
2023-04-01T22:31:02.897Z,5.61
2023-04-01T22:33:35.941Z,5.74
2023-04-01T22:36:13.867Z,5.63
2023-04-01T22:38:58.749Z,5.42
2023-04-01T22:41:42.227Z,5.60
2023-04-01T22:44:22.288Z,5.71
2023-04-01T22:47:00.378Z,5.55
2023-04-01T22:49:34.521Z,5.56
2023-04-01T22:52:07.642Z,5.30
2023-04-01T22:54:42.373Z,5.64
2023-04-01T22:57:17.286Z,5.87
2023-04-01T22:59:53.327Z,5.46
2023-04-01T23:02:26.706Z,5.49
2023-04-01T23:04:58.329Z,5.65
2023-04-01T23:07:47.900Z,5.73
2023-04-01T23:10:22.099Z,5.85
2023-04-01T23:12:53.707Z,5.50
2023-04-01T23:15:22.680Z,5.58
2023-04-01T23:18:01.670Z,5.31
2023-04-01T23:20:42.198Z,5.85
2023-04-01T23:23:22.964Z,6.02
2023-04-01T23:26:00.337Z,6.05
2023-04-01T23:28:43.900Z,6.04
2023-04-01T23:31:45.408Z,6.40
2023-04-01T23:34:30.137Z,5.97
2023-04-01T23:37:01.098Z,5.85
2023-04-01T23:39:33.722Z,5.47
2023-04-01T23:42:06.050Z,5.95
2023-04-01T23:44:37.465Z,5.39
2023-04-01T23:47:07.167Z,5.55
2023-04-01T23:49:38.975Z,5.64
2023-04-01T23:52:15.151Z,5.74
2023-04-01T23:54:46.354Z,5.84
2023-04-01T23:57:16.490Z,5.61
2023-04-01T23:59:45.698Z,5.51
